sensor_id;sensor_type;location;lat;lon;timestamp;P1;durP1;ratioP1;P2;durP2;ratioP2
33268;SDS011;19640;50.944;5.260;2023-04-05T00:01:40;12.90;;;7.20;;
33268;SDS011;19640;50.944;5.260;2023-04-05T00:04:06;12.10;;;7.70;;
33268;SDS011;19640;50.944;5.260;2023-04-05T00:06:32;23.45;;;8.57;;
33268;SDS011;19640;50.944;5.260;2023-04-05T00:08:59;12.15;;;6.78;;
33268;SDS011;19640;50.944;5.260;2023-04-05T00:11:29;7.57;;;6.53;;
33268;SDS011;19640;50.944;5.260;2023-04-05T00:14:00;7.55;;;6.63;;
33268;SDS011;19640;50.944;5.260;2023-04-05T00:16:27;9.32;;;7.22;;
33268;SDS011;19640;50.944;5.260;2023-04-05T00:18:54;17.13;;;7.78;;
33268;SDS011;19640;50.944;5.260;2023-04-05T00:21:21;9.27;;;7.88;;
33268;SDS011;19640;50.944;5.260;2023-04-05T00:23:48;15.20;;;7.90;;
33268;SDS011;19640;50.944;5.260;2023-04-05T00:26:15;11.20;;;7.60;;
33268;SDS011;19640;50.944;5.260;2023-04-05T00:28:41;11.60;;;7.63;;
33268;SDS011;19640;50.944;5.260;2023-04-05T00:31:07;8.60;;;7.03;;
33268;SDS011;19640;50.944;5.260;2023-04-05T00:33:32;7.75;;;6.28;;
33268;SDS011;19640;50.944;5.260;2023-04-05T00:36:19;9.07;;;8.18;;
33268;SDS011;19640;50.944;5.260;2023-04-05T00:38:45;11.80;;;7.70;;
33268;SDS011;19640;50.944;5.260;2023-04-05T00:41:12;9.82;;;7.75;;
33268;SDS011;19640;50.944;5.260;2023-04-05T00:43:38;10.45;;;7.20;;
33268;SDS011;19640;50.944;5.260;2023-04-05T00:46:04;11.45;;;8.00;;
33268;SDS011;19640;50.944;5.260;2023-04-05T00:48:31;8.77;;;7.45;;
33268;SDS011;19640;50.944;5.260;2023-04-05T00:50:57;11.98;;;8.70;;
33268;SDS011;19640;50.944;5.260;2023-04-05T00:53:23;10.68;;;8.30;;
33268;SDS011;19640;50.944;5.260;2023-04-05T00:55:51;9.90;;;8.05;;
33268;SDS011;19640;50.944;5.260;2023-04-05T00:58:17;10.07;;;9.00;;
33268;SDS011;19640;50.944;5.260;2023-04-05T01:00:46;14.00;;;8.23;;
33268;SDS011;19640;50.944;5.260;2023-04-05T01:03:29;9.60;;;7.35;;
33268;SDS011;19640;50.944;5.260;2023-04-05T01:06:09;8.50;;;7.40;;
33268;SDS011;19640;50.944;5.260;2023-04-05T01:11:37;10.75;;;8.32;;
33268;SDS011;19640;50.944;5.260;2023-04-05T01:14:04;11.68;;;8.85;;
33268;SDS011;19640;50.944;5.260;2023-04-05T01:16:30;14.40;;;9.57;;
33268;SDS011;19640;50.944;5.260;2023-04-05T01:18:56;12.45;;;9.48;;
33268;SDS011;19640;50.944;5.260;2023-04-05T01:26:55;13.85;;;9.48;;
33268;SDS011;19640;50.944;5.260;2023-04-05T01:33:00;10.40;;;8.68;;
33268;SDS011;19640;50.944;5.260;2023-04-05T01:36:09;13.90;;;9.38;;
33268;SDS011;19640;50.944;5.260;2023-04-05T01:38:48;14.82;;;8.60;;
33268;SDS011;19640;50.944;5.260;2023-04-05T01:41:15;10.77;;;8.07;;
33268;SDS011;19640;50.944;5.260;2023-04-05T01:43:40;10.15;;;8.05;;
33268;SDS011;19640;50.944;5.260;2023-04-05T01:46:06;9.07;;;8.18;;
33268;SDS011;19640;50.944;5.260;2023-04-05T01:48:31;14.82;;;9.18;;
33268;SDS011;19640;50.944;5.260;2023-04-05T01:50:57;12.45;;;8.50;;
33268;SDS011;19640;50.944;5.260;2023-04-05T01:53:23;11.02;;;8.93;;
33268;SDS011;19640;50.944;5.260;2023-04-05T01:55:49;12.90;;;9.30;;
33268;SDS011;19640;50.944;5.260;2023-04-05T01:58:15;11.63;;;9.00;;
33268;SDS011;19640;50.944;5.260;2023-04-05T02:00:41;11.43;;;8.52;;
33268;SDS011;19640;50.944;5.260;2023-04-05T02:03:06;10.45;;;9.27;;
33268;SDS011;19640;50.944;5.260;2023-04-05T02:05:32;11.20;;;8.63;;
33268;SDS011;19640;50.944;5.260;2023-04-05T02:07:58;13.07;;;9.13;;
33268;SDS011;19640;50.944;5.260;2023-04-05T02:10:23;11.40;;;9.18;;
33268;SDS011;19640;50.944;5.260;2023-04-05T02:12:49;14.88;;;10.10;;
33268;SDS011;19640;50.944;5.260;2023-04-05T02:15:15;14.27;;;9.82;;
33268;SDS011;19640;50.944;5.260;2023-04-05T02:17:41;15.23;;;9.68;;
33268;SDS011;19640;50.944;5.260;2023-04-05T02:20:10;13.30;;;9.90;;
33268;SDS011;19640;50.944;5.260;2023-04-05T02:22:38;13.77;;;8.70;;
33268;SDS011;19640;50.944;5.260;2023-04-05T02:25:05;10.20;;;8.77;;
33268;SDS011;19640;50.944;5.260;2023-04-05T02:27:34;11.93;;;9.18;;
33268;SDS011;19640;50.944;5.260;2023-04-05T02:30:00;16.48;;;8.57;;
33268;SDS011;19640;50.944;5.260;2023-04-05T02:32:26;18.95;;;8.48;;
33268;SDS011;19640;50.944;5.260;2023-04-05T02:34:52;11.43;;;8.00;;
33268;SDS011;19640;50.944;5.260;2023-04-05T02:37:18;13.32;;;8.75;;
33268;SDS011;19640;50.944;5.260;2023-04-05T02:39:44;11.07;;;8.40;;
33268;SDS011;19640;50.944;5.260;2023-04-05T02:42:10;8.65;;;7.35;;
33268;SDS011;19640;50.944;5.260;2023-04-05T02:44:36;14.30;;;8.63;;
33268;SDS011;19640;50.944;5.260;2023-04-05T02:47:01;12.00;;;8.25;;
33268;SDS011;19640;50.944;5.260;2023-04-05T02:49:27;9.70;;;8.30;;
33268;SDS011;19640;50.944;5.260;2023-04-05T02:51:53;10.00;;;7.38;;
33268;SDS011;19640;50.944;5.260;2023-04-05T02:54:20;11.50;;;8.32;;
33268;SDS011;19640;50.944;5.260;2023-04-05T02:56:45;13.88;;;9.23;;
33268;SDS011;19640;50.944;5.260;2023-04-05T02:59:14;16.70;;;9.93;;
33268;SDS011;19640;50.944;5.260;2023-04-05T03:01:40;15.20;;;10.55;;
33268;SDS011;19640;50.944;5.260;2023-04-05T03:04:08;12.38;;;10.32;;
33268;SDS011;19640;50.944;5.260;2023-04-05T03:06:36;15.73;;;11.05;;
33268;SDS011;19640;50.944;5.260;2023-04-05T03:09:02;12.43;;;9.32;;
33268;SDS011;19640;50.944;5.260;2023-04-05T03:11:29;13.35;;;9.07;;
33268;SDS011;19640;50.944;5.260;2023-04-05T03:13:55;10.63;;;8.35;;
33268;SDS011;19640;50.944;5.260;2023-04-05T03:16:21;15.45;;;9.43;;
33268;SDS011;19640;50.944;5.260;2023-04-05T03:18:47;12.55;;;9.95;;
33268;SDS011;19640;50.944;5.260;2023-04-05T03:21:13;15.70;;;9.27;;
33268;SDS011;19640;50.944;5.260;2023-04-05T03:23:42;11.43;;;9.02;;
33268;SDS011;19640;50.944;5.260;2023-04-05T03:26:10;12.10;;;9.60;;
33268;SDS011;19640;50.944;5.260;2023-04-05T03:28:37;10.95;;;9.27;;
33268;SDS011;19640;50.944;5.260;2023-04-05T03:31:02;15.60;;;10.07;;
33268;SDS011;19640;50.944;5.260;2023-04-05T03:33:28;22.65;;;11.35;;
33268;SDS011;19640;50.944;5.260;2023-04-05T03:35:54;13.07;;;9.80;;
33268;SDS011;19640;50.944;5.260;2023-04-05T03:38:19;12.52;;;9.25;;
33268;SDS011;19640;50.944;5.260;2023-04-05T03:40:45;12.95;;;10.27;;
33268;SDS011;19640;50.944;5.260;2023-04-05T03:43:11;20.65;;;9.32;;
33268;SDS011;19640;50.944;5.260;2023-04-05T03:45:37;13.25;;;9.13;;
33268;SDS011;19640;50.944;5.260;2023-04-05T03:48:03;10.90;;;8.73;;
33268;SDS011;19640;50.944;5.260;2023-04-05T03:50:29;11.60;;;9.25;;
33268;SDS011;19640;50.944;5.260;2023-04-05T03:52:56;13.85;;;9.52;;
33268;SDS011;19640;50.944;5.260;2023-04-05T03:55:21;12.85;;;10.10;;
33268;SDS011;19640;50.944;5.260;2023-04-05T03:57:47;16.20;;;11.57;;
33268;SDS011;19640;50.944;5.260;2023-04-05T04:00:12;15.07;;;11.43;;
33268;SDS011;19640;50.944;5.260;2023-04-05T04:02:40;20.23;;;12.13;;
33268;SDS011;19640;50.944;5.260;2023-04-05T04:05:13;20.08;;;11.75;;
33268;SDS011;19640;50.944;5.260;2023-04-05T04:07:40;17.63;;;12.88;;
33268;SDS011;19640;50.944;5.260;2023-04-05T04:10:07;19.98;;;10.63;;
33268;SDS011;19640;50.944;5.260;2023-04-05T04:12:34;13.85;;;10.27;;
33268;SDS011;19640;50.944;5.260;2023-04-05T04:15:00;14.95;;;10.52;;
33268;SDS011;19640;50.944;5.260;2023-04-05T04:17:29;16.88;;;10.75;;
33268;SDS011;19640;50.944;5.260;2023-04-05T04:19:59;13.57;;;10.30;;
33268;SDS011;19640;50.944;5.260;2023-04-05T04:22:25;14.00;;;10.63;;
33268;SDS011;19640;50.944;5.260;2023-04-05T04:24:57;11.65;;;10.43;;
33268;SDS011;19640;50.944;5.260;2023-04-05T04:27:29;14.95;;;10.32;;
33268;SDS011;19640;50.944;5.260;2023-04-05T04:29:55;12.88;;;10.10;;
33268;SDS011;19640;50.944;5.260;2023-04-05T04:32:26;16.07;;;11.00;;
33268;SDS011;19640;50.944;5.260;2023-04-05T04:35:13;12.60;;;10.48;;
33268;SDS011;19640;50.944;5.260;2023-04-05T04:37:44;15.00;;;11.30;;
33268;SDS011;19640;50.944;5.260;2023-04-05T04:40:16;13.13;;;9.80;;
33268;SDS011;19640;50.944;5.260;2023-04-05T04:42:43;14.70;;;10.10;;
33268;SDS011;19640;50.944;5.260;2023-04-05T04:45:11;15.23;;;10.05;;
33268;SDS011;19640;50.944;5.260;2023-04-05T04:47:40;12.38;;;9.82;;
33268;SDS011;19640;50.944;5.260;2023-04-05T04:50:06;12.90;;;9.93;;
33268;SDS011;19640;50.944;5.260;2023-04-05T04:52:33;18.65;;;12.05;;
33268;SDS011;19640;50.944;5.260;2023-04-05T04:54:59;10.77;;;9.23;;
33268;SDS011;19640;50.944;5.260;2023-04-05T04:57:27;13.07;;;9.65;;
33268;SDS011;19640;50.944;5.260;2023-04-05T04:59:54;12.63;;;10.02;;
33268;SDS011;19640;50.944;5.260;2023-04-05T05:02:23;14.35;;;10.25;;
33268;SDS011;19640;50.944;5.260;2023-04-05T05:04:49;15.30;;;10.88;;
33268;SDS011;19640;50.944;5.260;2023-04-05T05:07:15;13.13;;;10.82;;
33268;SDS011;19640;50.944;5.260;2023-04-05T05:09:41;11.93;;;9.60;;
33268;SDS011;19640;50.944;5.260;2023-04-05T05:12:07;18.98;;;10.57;;
33268;SDS011;19640;50.944;5.260;2023-04-05T05:14:33;17.15;;;10.13;;
33268;SDS011;19640;50.944;5.260;2023-04-05T05:16:59;14.90;;;11.30;;
33268;SDS011;19640;50.944;5.260;2023-04-05T05:19:24;14.52;;;11.10;;
33268;SDS011;19640;50.944;5.260;2023-04-05T05:21:50;18.58;;;10.25;;
33268;SDS011;19640;50.944;5.260;2023-04-05T05:24:18;21.52;;;11.80;;
33268;SDS011;19640;50.944;5.260;2023-04-05T05:26:44;13.48;;;10.90;;
33268;SDS011;19640;50.944;5.260;2023-04-05T05:29:10;15.43;;;10.40;;
33268;SDS011;19640;50.944;5.260;2023-04-05T05:31:35;18.52;;;11.50;;
33268;SDS011;19640;50.944;5.260;2023-04-05T05:34:01;13.20;;;10.57;;
33268;SDS011;19640;50.944;5.260;2023-04-05T05:36:27;12.38;;;10.80;;
33268;SDS011;19640;50.944;5.260;2023-04-05T05:38:53;14.80;;;10.52;;
33268;SDS011;19640;50.944;5.260;2023-04-05T05:41:18;16.85;;;12.07;;
33268;SDS011;19640;50.944;5.260;2023-04-05T05:43:46;12.73;;;10.80;;
33268;SDS011;19640;50.944;5.260;2023-04-05T05:46:12;15.13;;;10.68;;
33268;SDS011;19640;50.944;5.260;2023-04-05T05:48:38;14.48;;;10.50;;
33268;SDS011;19640;50.944;5.260;2023-04-05T05:51:06;19.98;;;10.25;;
33268;SDS011;19640;50.944;5.260;2023-04-05T05:53:36;15.23;;;9.93;;
33268;SDS011;19640;50.944;5.260;2023-04-05T05:56:02;11.77;;;10.40;;
33268;SDS011;19640;50.944;5.260;2023-04-05T05:58:27;13.07;;;11.38;;
33268;SDS011;19640;50.944;5.260;2023-04-05T06:00:53;11.20;;;9.13;;
33268;SDS011;19640;50.944;5.260;2023-04-05T06:03:23;13.43;;;9.40;;
33268;SDS011;19640;50.944;5.260;2023-04-05T06:05:54;12.02;;;9.57;;
33268;SDS011;19640;50.944;5.260;2023-04-05T06:08:21;13.52;;;9.50;;
33268;SDS011;19640;50.944;5.260;2023-04-05T06:10:52;14.43;;;9.32;;
33268;SDS011;19640;50.944;5.260;2023-04-05T06:13:18;12.13;;;9.40;;
33268;SDS011;19640;50.944;5.260;2023-04-05T06:15:44;10.52;;;8.48;;
33268;SDS011;19640;50.944;5.260;2023-04-05T06:18:11;13.10;;;9.27;;
33268;SDS011;19640;50.944;5.260;2023-04-05T06:20:37;11.95;;;10.27;;
33268;SDS011;19640;50.944;5.260;2023-04-05T06:23:05;13.35;;;10.40;;
33268;SDS011;19640;50.944;5.260;2023-04-05T06:25:31;16.02;;;11.07;;
33268;SDS011;19640;50.944;5.260;2023-04-05T06:27:57;14.80;;;11.23;;
33268;SDS011;19640;50.944;5.260;2023-04-05T06:30:23;16.13;;;12.73;;
33268;SDS011;19640;50.944;5.260;2023-04-05T06:32:48;17.25;;;10.82;;
33268;SDS011;19640;50.944;5.260;2023-04-05T06:35:18;12.60;;;10.15;;
33268;SDS011;19640;50.944;5.260;2023-04-05T06:37:45;13.98;;;10.75;;
33268;SDS011;19640;50.944;5.260;2023-04-05T06:40:11;14.70;;;10.15;;
33268;SDS011;19640;50.944;5.260;2023-04-05T06:42:37;15.43;;;11.18;;
33268;SDS011;19640;50.944;5.260;2023-04-05T06:45:03;13.63;;;10.68;;
33268;SDS011;19640;50.944;5.260;2023-04-05T06:47:35;20.52;;;11.70;;
33268;SDS011;19640;50.944;5.260;2023-04-05T06:50:04;13.98;;;10.45;;
33268;SDS011;19640;50.944;5.260;2023-04-05T06:52:31;17.80;;;11.85;;
33268;SDS011;19640;50.944;5.260;2023-04-05T06:54:57;17.08;;;11.23;;
33268;SDS011;19640;50.944;5.260;2023-04-05T06:57:23;17.80;;;10.95;;
33268;SDS011;19640;50.944;5.260;2023-04-05T06:59:49;15.48;;;10.32;;
33268;SDS011;19640;50.944;5.260;2023-04-05T07:02:16;15.55;;;10.60;;
33268;SDS011;19640;50.944;5.260;2023-04-05T07:04:42;17.23;;;11.25;;
33268;SDS011;19640;50.944;5.260;2023-04-05T07:07:08;13.95;;;11.77;;
33268;SDS011;19640;50.944;5.260;2023-04-05T07:09:34;12.27;;;10.13;;
33268;SDS011;19640;50.944;5.260;2023-04-05T07:12:02;16.77;;;11.52;;
33268;SDS011;19640;50.944;5.260;2023-04-05T07:14:29;15.38;;;10.02;;
33268;SDS011;19640;50.944;5.260;2023-04-05T07:16:55;18.92;;;10.52;;
33268;SDS011;19640;50.944;5.260;2023-04-05T07:19:21;16.95;;;9.98;;
33268;SDS011;19640;50.944;5.260;2023-04-05T07:21:47;11.27;;;9.13;;
33268;SDS011;19640;50.944;5.260;2023-04-05T07:24:13;12.60;;;9.88;;
33268;SDS011;19640;50.944;5.260;2023-04-05T07:26:39;10.30;;;8.30;;
33268;SDS011;19640;50.944;5.260;2023-04-05T07:29:05;17.35;;;9.65;;
33268;SDS011;19640;50.944;5.260;2023-04-05T07:31:32;11.63;;;8.40;;
33268;SDS011;19640;50.944;5.260;2023-04-05T07:33:58;16.05;;;9.13;;
33268;SDS011;19640;50.944;5.260;2023-04-05T07:36:25;15.00;;;8.00;;
33268;SDS011;19640;50.944;5.260;2023-04-05T07:38:52;14.98;;;9.20;;
33268;SDS011;19640;50.944;5.260;2023-04-05T07:41:18;11.93;;;9.48;;
33268;SDS011;19640;50.944;5.260;2023-04-05T07:43:44;12.90;;;10.32;;
33268;SDS011;19640;50.944;5.260;2023-04-05T07:46:10;11.93;;;10.43;;
33268;SDS011;19640;50.944;5.260;2023-04-05T07:48:36;15.77;;;10.50;;
33268;SDS011;19640;50.944;5.260;2023-04-05T07:51:03;11.55;;;10.27;;
33268;SDS011;19640;50.944;5.260;2023-04-05T07:53:30;11.30;;;10.10;;
33268;SDS011;19640;50.944;5.260;2023-04-05T07:55:56;14.88;;;10.60;;
33268;SDS011;19640;50.944;5.260;2023-04-05T07:58:24;11.68;;;9.82;;
33268;SDS011;19640;50.944;5.260;2023-04-05T08:00:49;11.63;;;10.10;;
33268;SDS011;19640;50.944;5.260;2023-04-05T08:03:17;9.75;;;8.70;;
33268;SDS011;19640;50.944;5.260;2023-04-05T08:05:43;15.90;;;9.63;;
33268;SDS011;19640;50.944;5.260;2023-04-05T08:08:08;11.75;;;9.15;;
33268;SDS011;19640;50.944;5.260;2023-04-05T08:10:38;10.60;;;9.50;;
33268;SDS011;19640;50.944;5.260;2023-04-05T08:13:04;11.98;;;9.55;;
33268;SDS011;19640;50.944;5.260;2023-04-05T08:15:33;10.70;;;8.82;;
33268;SDS011;19640;50.944;5.260;2023-04-05T08:17:59;10.40;;;9.27;;
33268;SDS011;19640;50.944;5.260;2023-04-05T08:20:25;11.43;;;9.07;;
33268;SDS011;19640;50.944;5.260;2023-04-05T08:22:51;9.77;;;8.77;;
33268;SDS011;19640;50.944;5.260;2023-04-05T08:25:16;12.23;;;8.73;;
33268;SDS011;19640;50.944;5.260;2023-04-05T08:27:42;10.45;;;7.75;;
33268;SDS011;19640;50.944;5.260;2023-04-05T08:30:08;11.15;;;8.18;;
33268;SDS011;19640;50.944;5.260;2023-04-05T08:32:34;10.30;;;7.53;;
33268;SDS011;19640;50.944;5.260;2023-04-05T08:35:00;8.57;;;7.60;;
33268;SDS011;19640;50.944;5.260;2023-04-05T08:37:26;9.85;;;7.38;;
33268;SDS011;19640;50.944;5.260;2023-04-05T08:39:52;12.38;;;7.47;;
33268;SDS011;19640;50.944;5.260;2023-04-05T08:42:18;10.98;;;8.13;;
33268;SDS011;19640;50.944;5.260;2023-04-05T08:44:51;20.35;;;8.30;;
33268;SDS011;19640;50.944;5.260;2023-04-05T08:47:18;10.90;;;6.82;;
33268;SDS011;19640;50.944;5.260;2023-04-05T08:49:47;8.65;;;7.13;;
33268;SDS011;19640;50.944;5.260;2023-04-05T08:52:13;8.52;;;7.30;;
33268;SDS011;19640;50.944;5.260;2023-04-05T08:54:39;11.10;;;7.00;;
33268;SDS011;19640;50.944;5.260;2023-04-05T08:57:04;9.20;;;7.22;;
33268;SDS011;19640;50.944;5.260;2023-04-05T08:59:32;9.25;;;7.28;;
33268;SDS011;19640;50.944;5.260;2023-04-05T09:02:03;10.65;;;6.72;;
33268;SDS011;19640;50.944;5.260;2023-04-05T09:04:42;7.60;;;6.80;;
33268;SDS011;19640;50.944;5.260;2023-04-05T09:07:12;10.73;;;6.43;;
33268;SDS011;19640;50.944;5.260;2023-04-05T09:09:38;7.25;;;5.32;;
33268;SDS011;19640;50.944;5.260;2023-04-05T09:12:11;9.40;;;6.53;;
33268;SDS011;19640;50.944;5.260;2023-04-05T09:14:38;8.55;;;6.63;;
33268;SDS011;19640;50.944;5.260;2023-04-05T09:17:04;10.57;;;5.82;;
33268;SDS011;19640;50.944;5.260;2023-04-05T09:19:30;6.30;;;4.75;;
33268;SDS011;19640;50.944;5.260;2023-04-05T09:24:33;8.13;;;5.53;;
33268;SDS011;19640;50.944;5.260;2023-04-05T09:27:04;5.63;;;4.60;;
33268;SDS011;19640;50.944;5.260;2023-04-05T09:29:35;7.30;;;4.97;;
33268;SDS011;19640;50.944;5.260;2023-04-05T09:32:02;8.10;;;5.43;;
33268;SDS011;19640;50.944;5.260;2023-04-05T09:34:29;7.00;;;5.05;;
33268;SDS011;19640;50.944;5.260;2023-04-05T09:36:57;7.07;;;4.88;;
33268;SDS011;19640;50.944;5.260;2023-04-05T09:39:27;7.07;;;5.25;;
33268;SDS011;19640;50.944;5.260;2023-04-05T09:42:10;6.82;;;5.60;;
33268;SDS011;19640;50.944;5.260;2023-04-05T09:47:23;7.75;;;5.65;;
33268;SDS011;19640;50.944;5.260;2023-04-05T09:49:55;9.20;;;5.38;;
33268;SDS011;19640;50.944;5.260;2023-04-05T09:52:22;8.95;;;5.10;;
33268;SDS011;19640;50.944;5.260;2023-04-05T09:54:50;6.47;;;5.25;;
33268;SDS011;19640;50.944;5.260;2023-04-05T09:57:17;7.75;;;5.93;;
33268;SDS011;19640;50.944;5.260;2023-04-05T09:59:44;9.77;;;5.53;;
33268;SDS011;19640;50.944;5.260;2023-04-05T10:02:11;7.00;;;5.63;;
33268;SDS011;19640;50.944;5.260;2023-04-05T10:04:37;9.30;;;5.90;;
33268;SDS011;19640;50.944;5.260;2023-04-05T10:07:08;7.47;;;5.20;;
33268;SDS011;19640;50.944;5.260;2023-04-05T10:09:35;8.85;;;5.55;;
33268;SDS011;19640;50.944;5.260;2023-04-05T10:12:01;9.00;;;5.20;;
33268;SDS011;19640;50.944;5.260;2023-04-05T10:14:28;6.32;;;4.70;;
33268;SDS011;19640;50.944;5.260;2023-04-05T10:20:01;7.13;;;4.75;;
33268;SDS011;19640;50.944;5.260;2023-04-05T10:22:36;6.75;;;5.03;;
33268;SDS011;19640;50.944;5.260;2023-04-05T10:26:07;6.85;;;4.57;;
33268;SDS011;19640;50.944;5.260;2023-04-05T10:30:50;6.53;;;4.60;;
33268;SDS011;19640;50.944;5.260;2023-04-05T10:33:20;8.40;;;5.32;;
33268;SDS011;19640;50.944;5.260;2023-04-05T10:39:00;6.82;;;4.07;;
33268;SDS011;19640;50.944;5.260;2023-04-05T10:41:29;6.60;;;4.82;;
33268;SDS011;19640;50.944;5.260;2023-04-05T10:43:59;7.18;;;4.68;;
33268;SDS011;19640;50.944;5.260;2023-04-05T10:46:27;7.68;;;5.07;;
33268;SDS011;19640;50.944;5.260;2023-04-05T10:49:10;6.78;;;4.72;;
33268;SDS011;19640;50.944;5.260;2023-04-05T10:51:43;8.10;;;4.60;;
33268;SDS011;19640;50.944;5.260;2023-04-05T10:54:10;8.88;;;5.57;;
33268;SDS011;19640;50.944;5.260;2023-04-05T10:56:36;6.28;;;4.63;;
33268;SDS011;19640;50.944;5.260;2023-04-05T10:59:03;8.27;;;5.15;;
33268;SDS011;19640;50.944;5.260;2023-04-05T11:01:29;6.40;;;4.55;;
33268;SDS011;19640;50.944;5.260;2023-04-05T11:03:56;7.93;;;5.00;;
33268;SDS011;19640;50.944;5.260;2023-04-05T11:06:38;5.63;;;4.63;;
33268;SDS011;19640;50.944;5.260;2023-04-05T11:09:11;7.93;;;4.93;;
33268;SDS011;19640;50.944;5.260;2023-04-05T11:11:40;7.88;;;5.53;;
33268;SDS011;19640;50.944;5.260;2023-04-05T11:16:53;8.30;;;5.32;;
33268;SDS011;19640;50.944;5.260;2023-04-05T11:22:07;6.78;;;5.10;;
33268;SDS011;19640;50.944;5.260;2023-04-05T11:24:49;7.28;;;4.85;;
33268;SDS011;19640;50.944;5.260;2023-04-05T11:27:21;6.18;;;5.15;;
33268;SDS011;19640;50.944;5.260;2023-04-05T11:29:51;7.22;;;5.55;;
33268;SDS011;19640;50.944;5.260;2023-04-05T11:32:18;6.88;;;5.82;;
33268;SDS011;19640;50.944;5.260;2023-04-05T11:34:56;7.72;;;4.75;;
33268;SDS011;19640;50.944;5.260;2023-04-05T11:37:51;5.90;;;4.80;;
33268;SDS011;19640;50.944;5.260;2023-04-05T11:40:35;9.00;;;5.40;;
33268;SDS011;19640;50.944;5.260;2023-04-05T11:43:04;8.57;;;4.50;;
33268;SDS011;19640;50.944;5.260;2023-04-05T11:45:32;9.48;;;5.55;;
33268;SDS011;19640;50.944;5.260;2023-04-05T11:48:11;8.70;;;5.00;;
33268;SDS011;19640;50.944;5.260;2023-04-05T11:50:39;7.00;;;4.82;;
33268;SDS011;19640;50.944;5.260;2023-04-05T11:55:45;7.22;;;5.93;;
33268;SDS011;19640;50.944;5.260;2023-04-05T12:00:37;11.00;;;5.45;;
33268;SDS011;19640;50.944;5.260;2023-04-05T12:03:04;8.70;;;5.60;;
33268;SDS011;19640;50.944;5.260;2023-04-05T12:05:51;8.20;;;5.80;;
33268;SDS011;19640;50.944;5.260;2023-04-05T12:08:19;6.13;;;5.15;;
33268;SDS011;19640;50.944;5.260;2023-04-05T12:10:53;9.40;;;5.47;;
33268;SDS011;19640;50.944;5.260;2023-04-05T12:13:28;9.15;;;5.55;;
33268;SDS011;19640;50.944;5.260;2023-04-05T12:15:57;8.32;;;5.53;;
33268;SDS011;19640;50.944;5.260;2023-04-05T12:18:27;8.50;;;5.18;;
33268;SDS011;19640;50.944;5.260;2023-04-05T12:20:54;5.15;;;4.65;;
33268;SDS011;19640;50.944;5.260;2023-04-05T12:23:24;6.18;;;5.00;;
33268;SDS011;19640;50.944;5.260;2023-04-05T12:25:50;13.55;;;6.25;;
33268;SDS011;19640;50.944;5.260;2023-04-05T12:28:18;8.13;;;5.80;;
33268;SDS011;19640;50.944;5.260;2023-04-05T12:30:47;8.25;;;5.45;;
33268;SDS011;19640;50.944;5.260;2023-04-05T12:33:29;6.68;;;5.40;;
33268;SDS011;19640;50.944;5.260;2023-04-05T12:36:04;7.25;;;5.97;;
33268;SDS011;19640;50.944;5.260;2023-04-05T12:38:31;9.50;;;5.88;;
33268;SDS011;19640;50.944;5.260;2023-04-05T12:41:01;8.57;;;5.72;;
33268;SDS011;19640;50.944;5.260;2023-04-05T12:43:39;9.18;;;5.20;;
33268;SDS011;19640;50.944;5.260;2023-04-05T12:46:09;6.70;;;5.90;;
33268;SDS011;19640;50.944;5.260;2023-04-05T12:48:48;8.25;;;5.82;;
33268;SDS011;19640;50.944;5.260;2023-04-05T12:51:15;6.60;;;5.75;;
33268;SDS011;19640;50.944;5.260;2023-04-05T12:53:47;6.43;;;5.53;;
33268;SDS011;19640;50.944;5.260;2023-04-05T12:56:12;8.10;;;5.70;;
33268;SDS011;19640;50.944;5.260;2023-04-05T12:58:40;7.82;;;5.55;;
33268;SDS011;19640;50.944;5.260;2023-04-05T13:01:06;6.10;;;5.38;;
33268;SDS011;19640;50.944;5.260;2023-04-05T13:03:32;7.25;;;6.50;;
33268;SDS011;19640;50.944;5.260;2023-04-05T13:05:58;8.35;;;6.00;;
33268;SDS011;19640;50.944;5.260;2023-04-05T13:08:23;8.43;;;6.20;;
33268;SDS011;19640;50.944;5.260;2023-04-05T13:10:51;7.47;;;5.75;;
33268;SDS011;19640;50.944;5.260;2023-04-05T13:13:16;8.32;;;6.30;;
33268;SDS011;19640;50.944;5.260;2023-04-05T13:15:45;8.50;;;5.95;;
33268;SDS011;19640;50.944;5.260;2023-04-05T13:18:10;7.72;;;6.55;;
33268;SDS011;19640;50.944;5.260;2023-04-05T13:20:38;8.52;;;5.78;;
33268;SDS011;19640;50.944;5.260;2023-04-05T13:23:05;8.48;;;6.22;;
33268;SDS011;19640;50.944;5.260;2023-04-05T13:25:35;10.75;;;6.15;;
33268;SDS011;19640;50.944;5.260;2023-04-05T13:28:01;6.40;;;5.80;;
33268;SDS011;19640;50.944;5.260;2023-04-05T13:30:27;14.65;;;5.55;;
33268;SDS011;19640;50.944;5.260;2023-04-05T13:32:52;6.82;;;6.18;;
33268;SDS011;19640;50.944;5.260;2023-04-05T13:35:18;8.02;;;6.60;;
33268;SDS011;19640;50.944;5.260;2023-04-05T13:37:44;8.95;;;6.15;;
33268;SDS011;19640;50.944;5.260;2023-04-05T13:40:09;6.95;;;6.22;;
33268;SDS011;19640;50.944;5.260;2023-04-05T13:42:35;8.27;;;6.60;;
33268;SDS011;19640;50.944;5.260;2023-04-05T13:45:02;7.75;;;6.00;;
33268;SDS011;19640;50.944;5.260;2023-04-05T13:47:29;7.13;;;6.20;;
33268;SDS011;19640;50.944;5.260;2023-04-05T13:49:54;8.93;;;6.20;;
33268;SDS011;19640;50.944;5.260;2023-04-05T13:52:20;6.70;;;6.03;;
33268;SDS011;19640;50.944;5.260;2023-04-05T13:54:45;6.88;;;5.35;;
33268;SDS011;19640;50.944;5.260;2023-04-05T13:57:12;7.63;;;6.10;;
33268;SDS011;19640;50.944;5.260;2023-04-05T13:59:38;8.65;;;5.90;;
33268;SDS011;19640;50.944;5.260;2023-04-05T14:02:04;7.90;;;6.80;;
33268;SDS011;19640;50.944;5.260;2023-04-05T14:04:30;7.10;;;5.85;;
33268;SDS011;19640;50.944;5.260;2023-04-05T14:06:56;10.55;;;6.10;;
33268;SDS011;19640;50.944;5.260;2023-04-05T14:09:22;7.45;;;6.32;;
33268;SDS011;19640;50.944;5.260;2023-04-05T14:11:47;8.68;;;6.85;;
33268;SDS011;19640;50.944;5.260;2023-04-05T14:14:13;6.78;;;6.07;;
33268;SDS011;19640;50.944;5.260;2023-04-05T14:16:39;9.75;;;7.43;;
33268;SDS011;19640;50.944;5.260;2023-04-05T14:19:05;12.05;;;5.90;;
33268;SDS011;19640;50.944;5.260;2023-04-05T14:21:31;7.07;;;6.38;;
33268;SDS011;19640;50.944;5.260;2023-04-05T14:23:57;11.18;;;5.82;;
33268;SDS011;19640;50.944;5.260;2023-04-05T14:26:23;10.82;;;6.82;;
33268;SDS011;19640;50.944;5.260;2023-04-05T14:28:50;7.38;;;6.55;;
33268;SDS011;19640;50.944;5.260;2023-04-05T14:31:16;6.97;;;6.15;;
33268;SDS011;19640;50.944;5.260;2023-04-05T14:33:42;7.60;;;6.57;;
33268;SDS011;19640;50.944;5.260;2023-04-05T14:36:07;7.68;;;6.00;;
33268;SDS011;19640;50.944;5.260;2023-04-05T14:38:33;7.18;;;6.10;;
33268;SDS011;19640;50.944;5.260;2023-04-05T14:40:59;8.63;;;6.88;;
33268;SDS011;19640;50.944;5.260;2023-04-05T14:43:24;10.27;;;6.10;;
33268;SDS011;19640;50.944;5.260;2023-04-05T14:45:50;7.63;;;6.38;;
33268;SDS011;19640;50.944;5.260;2023-04-05T14:48:16;7.88;;;7.03;;
33268;SDS011;19640;50.944;5.260;2023-04-05T14:50:42;7.45;;;6.68;;
33268;SDS011;19640;50.944;5.260;2023-04-05T14:53:08;8.25;;;6.85;;
33268;SDS011;19640;50.944;5.260;2023-04-05T14:55:34;8.40;;;7.15;;
33268;SDS011;19640;50.944;5.260;2023-04-05T14:58:00;19.02;;;7.22;;
33268;SDS011;19640;50.944;5.260;2023-04-05T15:00:26;9.95;;;6.32;;
33268;SDS011;19640;50.944;5.260;2023-04-05T15:02:51;8.57;;;7.22;;
33268;SDS011;19640;50.944;5.260;2023-04-05T15:05:17;7.35;;;6.35;;
33268;SDS011;19640;50.944;5.260;2023-04-05T15:07:43;7.60;;;6.30;;
33268;SDS011;19640;50.944;5.260;2023-04-05T15:10:09;10.20;;;7.45;;
33268;SDS011;19640;50.944;5.260;2023-04-05T15:12:35;7.15;;;6.40;;
33268;SDS011;19640;50.944;5.260;2023-04-05T15:15:01;7.60;;;6.40;;
33268;SDS011;19640;50.944;5.260;2023-04-05T15:17:27;7.70;;;5.97;;
33268;SDS011;19640;50.944;5.260;2023-04-05T15:19:52;7.10;;;6.30;;